Terminal Aerodrome Forecast
Issued by NWS Pocatello, ID

Current Version | Previous Version | Text Only | Print | Product List | Glossary On
Versions: 1 2 3 4 5 6 7 8 9 10 11 12 13 14 15 16 17 18 19 20
570
FTUS45 KPIH 192325
TAFPIH
TAF
KPIH 192325Z 2000/2024 23015G25KT P6SM VCSH SCT008 BKN015 OVC035
     FM200200 23014G24KT P6SM SCT014 BKN035
     FM200600 24008KT 6SM -SN SCT015 OVC035
     FM201100 21008KT P6SM VCSH BKN008 OVC020
     FM201600 28011KT P6SM SCT008 BKN020
     FM201900 28012G22KT P6SM SCT020 BKN150=

USA.gov is the U.S. government's official web portal to all federal, state and local government web resources and services.